createdAt,value
2019-01-29T00:01:45.864Z,2.02
2019-01-29T00:04:20.094Z,2.00
2019-01-29T00:06:54.335Z,2.04
2019-01-29T00:09:28.700Z,2.06
2019-01-29T00:12:03.006Z,2.10
2019-01-29T00:14:37.212Z,2.07
2019-01-29T00:17:11.417Z,2.14
2019-01-29T00:19:45.684Z,2.14
2019-01-29T00:22:19.876Z,2.13
2019-01-29T00:27:33.908Z,2.18
2019-01-29T00:30:08.232Z,2.20
2019-01-29T00:32:42.434Z,2.16
2019-01-29T00:35:16.648Z,2.17
2019-01-29T00:37:50.880Z,2.16
2019-01-29T00:40:25.153Z,2.17
2019-01-29T00:42:59.360Z,2.11
2019-01-29T00:45:33.568Z,2.18
2019-01-29T00:48:07.783Z,2.15
2019-01-29T00:50:42.016Z,2.19
2019-01-29T00:53:16.220Z,2.16
2019-01-29T00:55:50.460Z,2.15
2019-01-29T00:58:24.678Z,2.17
2019-01-29T01:00:58.892Z,2.14
2019-01-29T01:03:33.103Z,2.13
2019-01-29T01:06:07.321Z,2.17
2019-01-29T01:08:41.536Z,2.13
2019-01-29T01:11:15.742Z,2.15
2019-01-29T01:13:49.925Z,2.16
2019-01-29T01:16:24.138Z,2.18
2019-01-29T01:18:58.346Z,2.18
2019-01-29T01:21:32.581Z,2.18
2019-01-29T01:24:06.805Z,2.21
2019-01-29T01:26:41.121Z,2.22
2019-01-29T01:29:15.376Z,2.25
2019-01-29T01:31:49.601Z,2.27
2019-01-29T01:34:23.796Z,2.25
2019-01-29T01:36:57.996Z,2.34
2019-01-29T01:39:32.190Z,2.28
2019-01-29T01:42:06.417Z,2.24
2019-01-29T01:44:40.629Z,2.28
2019-01-29T01:47:14.833Z,2.26
2019-01-29T01:49:49.026Z,2.25
2019-01-29T01:52:23.270Z,2.33
2019-01-29T01:54:57.452Z,2.32
2019-01-29T01:57:31.698Z,2.31
2019-01-29T02:00:06.534Z,2.31
2019-01-29T02:02:40.755Z,2.32
2019-01-29T02:05:15.091Z,2.32
2019-01-29T02:07:49.323Z,2.32
2019-01-29T02:11:04.091Z,2.37
2019-01-29T02:13:38.288Z,2.33
2019-01-29T02:16:12.501Z,2.31
2019-01-29T02:18:46.733Z,2.34
2019-01-29T02:21:21.752Z,2.31
2019-01-29T02:23:56.011Z,2.38
2019-01-29T02:26:30.198Z,2.37
2019-01-29T02:29:04.413Z,2.42
2019-01-29T02:31:38.633Z,2.40
2019-01-29T02:34:12.826Z,2.29
2019-01-29T02:36:47.049Z,2.22
2019-01-29T02:39:21.250Z,2.33
2019-01-29T02:41:55.495Z,2.35
2019-01-29T02:44:29.705Z,2.40
2019-01-29T02:47:03.890Z,2.32
2019-01-29T02:49:38.116Z,2.32
2019-01-29T02:52:12.338Z,2.38
2019-01-29T02:54:46.585Z,2.32
2019-01-29T02:57:20.787Z,2.35
2019-01-29T02:59:55.001Z,2.35
2019-01-29T03:02:29.213Z,2.28
2019-01-29T03:05:03.618Z,2.26
2019-01-29T03:07:37.830Z,2.27
2019-01-29T03:10:13.373Z,2.31
2019-01-29T03:12:47.614Z,2.36
2019-01-29T03:15:28.565Z,2.32
2019-01-29T03:18:02.773Z,2.28
2019-01-29T03:20:37.013Z,2.27
2019-01-29T03:23:11.386Z,2.30
2019-01-29T03:25:45.559Z,2.27
2019-01-29T03:28:19.810Z,2.24
2019-01-29T03:30:54.025Z,2.27
2019-01-29T03:33:28.228Z,2.35
2019-01-29T03:36:02.418Z,2.27
2019-01-29T03:38:36.634Z,2.32
2019-01-29T03:41:10.827Z,2.33
2019-01-29T03:43:45.062Z,2.30
2019-01-29T03:46:19.236Z,2.28
2019-01-29T03:48:53.456Z,2.31
2019-01-29T03:51:27.654Z,2.33
2019-01-29T03:54:01.851Z,2.31
2019-01-29T03:56:36.039Z,2.28
2019-01-29T03:59:10.264Z,2.28
2019-01-29T04:01:44.449Z,2.30
2019-01-29T04:04:18.660Z,2.30
2019-01-29T04:06:52.845Z,2.32
2019-01-29T04:09:27.093Z,2.35
2019-01-29T04:12:01.317Z,2.35
2019-01-29T04:14:35.549Z,2.35
2019-01-29T04:17:09.744Z,2.38
2019-01-29T04:19:44.178Z,2.40
2019-01-29T04:22:18.366Z,2.38
2019-01-29T04:24:52.599Z,2.39
2019-01-29T04:27:26.786Z,2.42
2019-01-29T04:30:01.006Z,2.39
2019-01-29T04:32:36.250Z,2.38
2019-01-29T04:35:10.590Z,2.36
2019-01-29T04:37:44.841Z,2.37
2019-01-29T04:40:20.223Z,2.36
2019-01-29T04:42:54.435Z,2.37
2019-01-29T04:45:28.680Z,2.36
2019-01-29T04:48:02.875Z,2.35
2019-01-29T04:50:37.093Z,2.38
2019-01-29T04:53:11.300Z,2.37
2019-01-29T04:55:45.512Z,2.38
2019-01-29T04:58:19.675Z,2.37
2019-01-29T05:00:53.907Z,2.38
2019-01-29T05:03:28.114Z,2.40
2019-01-29T05:06:02.333Z,2.36
2019-01-29T05:08:36.527Z,2.33
2019-01-29T05:11:10.752Z,2.33
2019-01-29T05:13:44.977Z,2.38
2019-01-29T05:16:19.199Z,2.36
2019-01-29T05:18:53.438Z,2.35
2019-01-29T05:21:27.660Z,2.36
2019-01-29T05:24:06.860Z,2.36
2019-01-29T05:26:37.863Z,2.36
2019-01-29T05:29:12.058Z,2.36
2019-01-29T05:31:46.297Z,2.44
2019-01-29T05:34:20.497Z,2.43
2019-01-29T05:36:54.722Z,2.37
2019-01-29T05:39:28.955Z,2.38
2019-01-29T05:42:03.171Z,2.35
2019-01-29T05:44:37.382Z,2.34
2019-01-29T05:47:11.583Z,2.37
2019-01-29T05:49:45.802Z,2.35
2019-01-29T05:52:20.020Z,2.37
2019-01-29T05:54:54.251Z,2.43
2019-01-29T05:57:28.437Z,2.37
2019-01-29T06:00:02.656Z,2.38
2019-01-29T06:02:36.870Z,2.40
2019-01-29T06:05:11.082Z,2.39
2019-01-29T06:07:45.297Z,2.37
2019-01-29T06:10:19.771Z,2.30
2019-01-29T06:12:53.982Z,2.25
2019-01-29T06:15:28.218Z,2.36
2019-01-29T06:18:02.405Z,2.34
2019-01-29T06:20:36.645Z,2.24
2019-01-29T06:23:10.872Z,2.28
2019-01-29T06:25:45.119Z,2.28
2019-01-29T06:28:19.297Z,2.28
2019-01-29T06:30:53.502Z,2.31
2019-01-29T06:33:27.706Z,2.29
2019-01-29T06:36:01.919Z,2.22
2019-01-29T06:38:36.107Z,2.22
2019-01-29T06:41:10.338Z,2.20
2019-01-29T06:43:44.542Z,2.18
2019-01-29T06:46:18.765Z,2.14
2019-01-29T06:48:53.914Z,2.14
2019-01-29T06:51:28.308Z,2.13
2019-01-29T06:54:02.538Z,2.10
2019-01-29T06:56:36.760Z,2.14
2019-01-29T06:59:10.954Z,2.17
2019-01-29T07:01:45.193Z,2.18
2019-01-29T07:04:19.384Z,2.16
2019-01-29T07:06:53.622Z,2.18
2019-01-29T07:09:27.906Z,2.22
2019-01-29T07:12:02.928Z,2.16
2019-01-29T07:14:37.134Z,2.17
2019-01-29T07:17:32.194Z,2.21
2019-01-29T07:20:09.455Z,2.25
2019-01-29T07:22:43.665Z,2.27
2019-01-29T07:25:18.068Z,2.27
2019-01-29T07:27:52.294Z,2.33
2019-01-29T07:30:26.501Z,2.34
2019-01-29T07:33:00.699Z,2.32
2019-01-29T07:35:34.985Z,2.30
2019-01-29T07:38:09.257Z,2.30
2019-01-29T07:40:43.467Z,2.30
2019-01-29T07:43:17.719Z,2.29
2019-01-29T07:45:51.928Z,2.27
2019-01-29T07:48:26.278Z,2.24
2019-01-29T07:51:00.505Z,2.24
2019-01-29T07:53:34.852Z,2.33
2019-01-29T07:56:09.072Z,2.28
2019-01-29T07:58:43.348Z,2.32
2019-01-29T08:01:17.565Z,2.32
2019-01-29T08:03:51.799Z,2.37
2019-01-29T08:06:26.036Z,2.37
2019-01-29T08:09:00.269Z,2.37
2019-01-29T08:11:34.455Z,2.38
2019-01-29T08:14:08.699Z,2.43
2019-01-29T08:16:42.919Z,2.41
2019-01-29T08:19:17.163Z,2.48
2019-01-29T08:21:51.496Z,2.53
2019-01-29T08:24:27.703Z,2.50
2019-01-29T08:27:01.731Z,2.47
2019-01-29T08:29:35.951Z,2.52
2019-01-29T08:32:10.184Z,2.57
2019-01-29T08:34:44.456Z,2.64
2019-01-29T08:37:18.672Z,2.66
2019-01-29T08:39:52.914Z,2.69
2019-01-29T08:42:27.135Z,2.69
2019-01-29T08:45:03.072Z,2.78
2019-01-29T08:47:37.298Z,2.79
2019-01-29T08:50:14.283Z,2.81
2019-01-29T08:52:48.495Z,2.81
2019-01-29T08:55:22.747Z,2.77
2019-01-29T08:57:56.941Z,2.80
2019-01-29T09:00:31.189Z,2.83
2019-01-29T09:03:05.750Z,2.91
2019-01-29T09:05:39.986Z,3.00
2019-01-29T09:08:14.205Z,3.03
2019-01-29T09:10:48.429Z,3.08
2019-01-29T09:13:22.598Z,3.18
2019-01-29T09:15:56.827Z,3.24
2019-01-29T09:18:31.040Z,3.35
2019-01-29T09:21:05.412Z,3.47
2019-01-29T09:23:39.624Z,3.53
2019-01-29T09:26:13.878Z,3.44
2019-01-29T09:28:48.105Z,3.56
2019-01-29T09:31:22.335Z,3.46
2019-01-29T09:33:56.548Z,3.48
2019-01-29T09:36:30.794Z,3.49
2019-01-29T09:39:08.590Z,3.49
2019-01-29T09:41:42.879Z,3.52
2019-01-29T09:44:17.148Z,3.47
2019-01-29T09:46:51.379Z,3.47
2019-01-29T09:49:25.593Z,3.42
2019-01-29T09:51:59.827Z,3.41
2019-01-29T09:54:34.078Z,3.43
2019-01-29T09:57:08.282Z,3.35
2019-01-29T09:59:42.495Z,3.34
2019-01-29T10:02:16.709Z,3.41
2019-01-29T10:04:51.045Z,3.46
2019-01-29T10:07:25.266Z,3.46
2019-01-29T10:09:59.507Z,3.53
2019-01-29T10:12:33.716Z,3.50
2019-01-29T10:15:10.777Z,3.45
2019-01-29T10:17:45.180Z,3.28
2019-01-29T10:20:19.564Z,3.24
2019-01-29T10:22:53.791Z,3.35
2019-01-29T10:25:28.148Z,3.42
2019-01-29T10:28:02.333Z,3.67
2019-01-29T10:30:36.716Z,3.75
2019-01-29T10:33:10.955Z,4.01
2019-01-29T10:35:45.196Z,4.11
2019-01-29T10:38:19.410Z,4.21
2019-01-29T10:40:53.650Z,4.31
2019-01-29T10:43:27.862Z,4.38
2019-01-29T10:46:02.126Z,4.34
2019-01-29T10:48:36.343Z,4.30
2019-01-29T10:51:10.626Z,4.27
2019-01-29T10:53:44.862Z,4.31
2019-01-29T10:56:19.155Z,4.24
2019-01-29T10:58:53.383Z,4.24
2019-01-29T11:01:27.623Z,4.16
2019-01-29T11:04:01.822Z,4.24
2019-01-29T11:06:36.073Z,4.23
2019-01-29T11:09:13.291Z,4.27
2019-01-29T11:11:47.562Z,4.36
2019-01-29T11:14:21.797Z,4.37
2019-01-29T11:16:56.044Z,4.33
2019-01-29T11:19:30.247Z,4.46
2019-01-29T11:22:04.622Z,4.57
2019-01-29T11:24:38.851Z,4.41
2019-01-29T11:27:13.103Z,4.36
2019-01-29T11:29:47.350Z,4.43
2019-01-29T11:32:21.756Z,4.37
2019-01-29T11:34:56.023Z,4.54
2019-01-29T11:37:30.270Z,4.37
2019-01-29T11:40:05.165Z,4.60
2019-01-29T11:42:39.378Z,4.50
2019-01-29T11:45:20.133Z,4.57
2019-01-29T11:47:54.529Z,4.67
2019-01-29T11:50:28.884Z,4.78
2019-01-29T11:53:03.162Z,4.80
2019-01-29T11:55:37.426Z,4.74
2019-01-29T11:58:11.986Z,4.87
2019-01-29T12:01:02.133Z,4.86
2019-01-29T12:03:36.391Z,4.79
2019-01-29T12:06:10.657Z,4.85
2019-01-29T12:08:44.933Z,4.73
2019-01-29T12:11:19.141Z,4.80
2019-01-29T12:13:53.413Z,4.82
2019-01-29T12:16:27.658Z,4.83
2019-01-29T12:19:01.900Z,4.74
2019-01-29T12:21:36.138Z,4.78
2019-01-29T12:24:11.336Z,4.75
2019-01-29T12:26:45.710Z,4.94
2019-01-29T12:29:19.964Z,4.99
2019-01-29T12:31:54.197Z,5.02
2019-01-29T12:34:28.511Z,4.96
2019-01-29T12:37:02.757Z,5.04
2019-01-29T12:39:36.997Z,5.03
2019-01-29T12:42:11.262Z,4.85
2019-01-29T12:44:45.538Z,4.78
2019-01-29T12:47:19.826Z,4.81
2019-01-29T12:49:54.042Z,4.88
2019-01-29T12:52:42.714Z,5.00
2019-01-29T12:55:16.974Z,5.02
2019-01-29T12:57:51.209Z,5.10
2019-01-29T13:00:27.564Z,5.06
2019-01-29T13:03:02.150Z,5.02
2019-01-29T13:05:36.399Z,5.27
2019-01-29T13:08:11.072Z,5.06
2019-01-29T13:10:45.278Z,4.99
2019-01-29T13:13:19.548Z,5.09
2019-01-29T13:15:53.817Z,5.19
2019-01-29T13:18:28.059Z,5.17
2019-01-29T13:21:02.314Z,5.22
2019-01-29T13:23:36.596Z,5.27
2019-01-29T13:26:10.842Z,5.25
2019-01-29T13:28:45.146Z,5.10
2019-01-29T13:31:19.414Z,5.02
2019-01-29T13:33:53.653Z,4.93
2019-01-29T13:36:27.874Z,4.90
2019-01-29T13:39:02.119Z,4.99
2019-01-29T13:41:36.387Z,4.97
2019-01-29T13:44:10.674Z,4.99
2019-01-29T13:46:44.951Z,5.01
2019-01-29T13:49:19.242Z,4.91
2019-01-29T13:51:53.479Z,4.94
2019-01-29T13:54:27.748Z,4.91
2019-01-29T13:57:01.985Z,4.90
2019-01-29T13:59:36.208Z,4.98
2019-01-29T14:02:10.468Z,5.10
2019-01-29T14:04:44.828Z,4.99
2019-01-29T14:07:22.621Z,5.05
2019-01-29T14:09:56.847Z,4.95
2019-01-29T14:12:31.092Z,4.90
2019-01-29T14:15:06.176Z,4.82
2019-01-29T14:17:40.386Z,4.74
2019-01-29T14:20:16.433Z,4.80
2019-01-29T14:22:50.703Z,4.83
2019-01-29T14:25:24.954Z,4.81
2019-01-29T14:27:59.187Z,4.80
2019-01-29T14:30:33.501Z,4.74
2019-01-29T14:33:08.301Z,4.68
2019-01-29T14:35:42.617Z,4.87
2019-01-29T14:38:57.884Z,4.82
2019-01-29T14:41:32.110Z,4.80
2019-01-29T14:44:09.499Z,4.70
2019-01-29T14:46:43.809Z,4.56
2019-01-29T14:49:18.063Z,4.78
2019-01-29T14:51:52.388Z,4.84
2019-01-29T14:54:26.626Z,4.50
2019-01-29T14:57:00.846Z,4.44
2019-01-29T14:59:36.598Z,4.38
2019-01-29T15:02:11.002Z,4.37
2019-01-29T15:04:45.204Z,4.27
2019-01-29T15:07:19.451Z,4.55
2019-01-29T15:09:53.668Z,4.39
2019-01-29T15:12:27.923Z,4.27
2019-01-29T15:15:02.185Z,4.25
2019-01-29T15:17:44.057Z,4.27
2019-01-29T15:20:18.333Z,4.25
2019-01-29T15:22:53.009Z,4.27
2019-01-29T15:25:27.268Z,4.02
2019-01-29T15:28:01.535Z,3.98
2019-01-29T15:30:36.106Z,4.12
2019-01-29T15:33:10.419Z,4.02
2019-01-29T15:35:44.678Z,4.14
2019-01-29T15:38:18.981Z,4.01
2019-01-29T15:40:53.216Z,3.96
2019-01-29T15:43:27.505Z,3.83
2019-01-29T15:46:01.725Z,3.69
2019-01-29T15:48:35.993Z,3.67
2019-01-29T15:51:10.281Z,3.61
2019-01-29T15:53:44.524Z,3.64
2019-01-29T15:56:18.745Z,3.55
2019-01-29T15:58:53.001Z,3.45
2019-01-29T16:01:27.249Z,3.36
2019-01-29T16:04:01.511Z,3.30
2019-01-29T16:06:35.748Z,3.21
2019-01-29T16:09:10.592Z,3.09
2019-01-29T16:11:44.835Z,3.04
2019-01-29T16:14:19.111Z,3.00
2019-01-29T16:16:53.312Z,2.94
2019-01-29T16:19:27.547Z,2.82
2019-01-29T16:22:01.808Z,2.83
2019-01-29T16:24:36.216Z,2.76
2019-01-29T16:27:10.494Z,2.69
2019-01-29T16:29:44.782Z,2.64
2019-01-29T16:32:19.050Z,2.55
2019-01-29T16:34:53.289Z,2.51
2019-01-29T16:37:27.560Z,2.46
2019-01-29T16:40:01.854Z,2.38
2019-01-29T16:42:36.163Z,2.39
2019-01-29T16:45:11.834Z,2.33
2019-01-29T16:47:46.391Z,2.33
2019-01-29T16:50:21.314Z,2.24
2019-01-29T16:52:55.773Z,2.14
2019-01-29T16:55:31.705Z,2.16
2019-01-29T16:58:06.653Z,2.02
2019-01-29T17:00:41.445Z,2.05
2019-01-29T17:03:15.693Z,1.98
2019-01-29T17:05:50.003Z,1.88
2019-01-29T17:08:24.233Z,1.83
2019-01-29T17:10:58.515Z,1.79
2019-01-29T17:13:32.877Z,1.85
2019-01-29T17:16:07.348Z,1.74
2019-01-29T17:18:41.625Z,1.77
2019-01-29T17:21:15.946Z,1.64
2019-01-29T17:23:50.242Z,1.57
2019-01-29T17:26:24.526Z,1.60
2019-01-29T17:28:58.982Z,1.50
2019-01-29T17:31:33.252Z,1.45
2019-01-29T17:34:07.552Z,1.47
2019-01-29T17:36:41.824Z,1.41
2019-01-29T17:39:16.103Z,1.29
2019-01-29T17:41:50.422Z,1.32
2019-01-29T17:44:24.743Z,1.23
2019-01-29T17:46:59.038Z,1.18
2019-01-29T17:49:33.772Z,1.18
2019-01-29T17:52:08.114Z,1.16
2019-01-29T17:54:42.422Z,1.17
2019-01-29T17:57:16.688Z,1.14
2019-01-29T17:59:50.992Z,1.17
2019-01-29T18:02:25.373Z,1.08
2019-01-29T18:05:02.598Z,1.09
2019-01-29T18:07:36.921Z,0.98
2019-01-29T18:10:11.983Z,0.92
2019-01-29T18:12:46.422Z,1.05
2019-01-29T18:15:22.784Z,0.96
2019-01-29T18:17:57.280Z,0.90
2019-01-29T18:20:31.614Z,0.75
2019-01-29T18:23:10.447Z,0.76
2019-01-29T18:25:44.799Z,0.74
2019-01-29T18:28:19.042Z,0.77
2019-01-29T18:30:53.506Z,0.70
2019-01-29T18:33:27.807Z,0.64
2019-01-29T18:36:02.146Z,0.58
2019-01-29T18:38:36.360Z,0.55
2019-01-29T18:41:11.594Z,0.56
2019-01-29T18:43:45.908Z,0.51
2019-01-29T18:46:20.273Z,0.47
2019-01-29T18:48:54.681Z,0.49
2019-01-29T18:51:29.100Z,0.64
2019-01-29T18:54:03.494Z,0.55
2019-01-29T18:56:37.858Z,0.54
2019-01-29T18:59:12.196Z,0.46
2019-01-29T19:01:46.471Z,0.39
2019-01-29T19:04:20.969Z,0.35
2019-01-29T19:06:55.282Z,0.36
2019-01-29T19:09:30.209Z,0.33
2019-01-29T19:12:04.646Z,0.31
2019-01-29T19:14:39.042Z,0.30
2019-01-29T19:17:13.484Z,0.16
2019-01-29T19:19:47.791Z,0.10
2019-01-29T19:22:22.745Z,0.13
2019-01-29T19:24:57.170Z,0.09
2019-01-29T19:27:31.568Z,0.07
2019-01-29T19:30:08.475Z,0.13
2019-01-29T19:32:42.829Z,0.15
2019-01-29T19:35:17.247Z,0.16
2019-01-29T19:37:51.639Z,0.02
2019-01-29T19:40:25.911Z,0.06
2019-01-29T19:43:00.732Z,0.07
2019-01-29T19:45:35.408Z,0.14
2019-01-29T19:48:30.713Z,0.16
2019-01-29T19:51:07.256Z,0.12
2019-01-29T19:53:41.566Z,0.05
2019-01-29T19:56:15.965Z,0.05
2019-01-29T19:58:50.304Z,0.11
2019-01-29T20:01:24.706Z,0.09
2019-01-29T20:03:58.980Z,0.05
2019-01-29T20:06:33.494Z,0.01
2019-01-29T20:14:46.304Z,0.01
2019-01-29T20:17:20.683Z,0.01
2019-01-29T20:19:54.993Z,-0.01
2019-01-29T20:22:29.431Z,-0.04
2019-01-29T20:25:03.782Z,0.01
2019-01-29T20:30:37.865Z,-0.03
2019-01-29T20:33:12.246Z,-0.02
2019-01-29T20:35:46.526Z,-0.03
2019-01-29T20:38:21.698Z,-0.08
2019-01-29T20:40:56.974Z,-0.12
2019-01-29T20:43:31.320Z,-0.06
2019-01-29T20:46:05.573Z,-0.05
2019-01-29T20:48:40.123Z,-0.18
2019-01-29T20:51:14.715Z,-0.28
2019-01-29T20:53:48.997Z,-0.30
2019-01-29T20:56:23.310Z,-0.40
2019-01-29T20:58:59.284Z,-0.44
2019-01-29T21:01:33.710Z,-0.39
2019-01-29T21:04:08.080Z,-0.55
2019-01-29T21:06:42.684Z,-0.47
2019-01-29T21:09:16.987Z,-0.40
2019-01-29T21:11:51.508Z,-0.43
2019-01-29T21:14:25.902Z,-0.40
2019-01-29T21:17:00.510Z,-0.39
2019-01-29T21:19:35.741Z,-0.43
2019-01-29T21:22:10.246Z,-0.48
2019-01-29T21:24:45.533Z,-0.42
2019-01-29T21:27:19.960Z,-0.58
2019-01-29T21:29:54.299Z,-0.61
2019-01-29T21:32:28.564Z,-0.59
2019-01-29T21:35:04.491Z,-0.57
2019-01-29T21:37:38.970Z,-0.52
2019-01-29T21:40:13.596Z,-0.61
2019-01-29T21:42:47.943Z,-0.61
2019-01-29T21:45:22.306Z,-0.66
2019-01-29T21:47:58.309Z,-0.59
2019-01-29T21:50:34.763Z,-0.70
2019-01-29T21:53:09.028Z,-0.71
2019-01-29T21:55:44.748Z,-0.76
2019-01-29T21:58:19.086Z,-0.81
2019-01-29T22:00:53.481Z,-0.81
2019-01-29T22:03:27.777Z,-0.79
2019-01-29T22:06:02.114Z,-0.86
2019-01-29T22:08:36.355Z,-0.81
2019-01-29T22:11:10.708Z,-0.88
2019-01-29T22:13:45.004Z,-0.94
2019-01-29T22:16:19.212Z,-0.96
2019-01-29T22:18:53.730Z,-0.92
2019-01-29T22:21:28.114Z,-0.96
2019-01-29T22:24:02.544Z,-0.98
2019-01-29T22:26:36.822Z,-1.03
2019-01-29T22:29:11.226Z,-1.09
2019-01-29T22:31:45.486Z,-1.12
2019-01-29T22:34:19.889Z,-1.05
2019-01-29T22:36:54.210Z,-1.10
2019-01-29T22:39:28.492Z,-1.17
2019-01-29T22:42:02.847Z,-1.14
2019-01-29T22:44:37.251Z,-1.25
2019-01-29T22:47:13.323Z,-1.15
2019-01-29T22:49:47.589Z,-1.22
2019-01-29T22:52:21.831Z,-1.31
2019-01-29T22:54:57.827Z,-1.33
2019-01-29T22:57:32.054Z,-1.28
2019-01-29T23:00:22.734Z,-1.26
2019-01-29T23:02:57.048Z,-1.23
2019-01-29T23:05:31.761Z,-1.33
2019-01-29T23:08:05.989Z,-1.34
2019-01-29T23:10:40.229Z,-1.26
2019-01-29T23:13:14.526Z,-1.31
2019-01-29T23:15:48.747Z,-1.40
2019-01-29T23:18:22.987Z,-1.41
2019-01-29T23:20:57.243Z,-1.52
2019-01-29T23:23:31.476Z,-1.49
2019-01-29T23:26:05.733Z,-1.49
2019-01-29T23:28:40.001Z,-1.50
2019-01-29T23:31:14.248Z,-1.51
2019-01-29T23:33:48.449Z,-1.51
2019-01-29T23:36:22.707Z,-1.60
2019-01-29T23:38:56.960Z,-1.55
2019-01-29T23:41:32.707Z,-1.61
2019-01-29T23:44:07.021Z,-1.56
2019-01-29T23:46:41.325Z,-1.65
2019-01-29T23:49:15.533Z,-1.71
2019-01-29T23:51:49.887Z,-1.68
2019-01-29T23:54:24.116Z,-1.74
2019-01-29T23:56:58.408Z,-1.75
2019-01-29T23:59:33.261Z,-1.81
